sensor_id;sensor_type;location;lat;lon;timestamp;pressure;altitude;pressure_sealevel;temperature;humidity
61337;BME280;47212;41.326;2.104;2023-06-22T00:02:59;101148.13;;;25.44;78.20
61337;BME280;47212;41.326;2.104;2023-06-22T00:08:07;101130.22;;;25.45;78.27
61337;BME280;47212;41.326;2.104;2023-06-22T00:13:09;101131.50;;;25.47;78.21
61337;BME280;47212;41.326;2.104;2023-06-22T00:18:12;101126.28;;;25.46;78.22
61337;BME280;47212;41.326;2.104;2023-06-22T00:23:16;101137.31;;;25.42;78.19
61337;BME280;47212;41.326;2.104;2023-06-22T00:28:26;101132.91;;;25.41;78.26
61337;BME280;47212;41.326;2.104;2023-06-22T00:33:28;101126.88;;;25.39;77.90
61337;BME280;47212;41.326;2.104;2023-06-22T00:38:30;101125.25;;;25.38;78.13
61337;BME280;47212;41.326;2.104;2023-06-22T00:43:33;101131.19;;;25.36;78.37
61337;BME280;47212;41.326;2.104;2023-06-22T00:48:40;101141.06;;;25.34;78.34
61337;BME280;47212;41.326;2.104;2023-06-22T00:53:55;101154.19;;;25.33;78.39
61337;BME280;47212;41.326;2.104;2023-06-22T00:59:01;101128.41;;;25.36;78.46
61337;BME280;47212;41.326;2.104;2023-06-22T01:05:17;101128.66;;;25.31;78.54
61337;BME280;47212;41.326;2.104;2023-06-22T01:10:27;101138.06;;;25.27;78.58
61337;BME280;47212;41.326;2.104;2023-06-22T01:15:46;101141.19;;;25.25;78.62
61337;BME280;47212;41.326;2.104;2023-06-22T01:20:53;101135.63;;;25.25;78.29
61337;BME280;47212;41.326;2.104;2023-06-22T01:31:51;101162.34;;;25.26;78.09
61337;BME280;47212;41.326;2.104;2023-06-22T01:37:04;101155.03;;;25.22;78.55
61337;BME280;47212;41.326;2.104;2023-06-22T01:42:06;101155.28;;;25.17;79.11
61337;BME280;47212;41.326;2.104;2023-06-22T01:47:15;101149.09;;;25.11;79.39
61337;BME280;47212;41.326;2.104;2023-06-22T01:52:26;101146.56;;;25.06;79.37
61337;BME280;47212;41.326;2.104;2023-06-22T01:57:31;101150.03;;;25.03;79.82
61337;BME280;47212;41.326;2.104;2023-06-22T02:02:48;101161.53;;;25.01;79.91
61337;BME280;47212;41.326;2.104;2023-06-22T02:08:06;101169.97;;;24.93;80.36
61337;BME280;47212;41.326;2.104;2023-06-22T02:13:13;101150.97;;;24.83;80.65
61337;BME280;47212;41.326;2.104;2023-06-22T02:18:18;101141.44;;;24.71;80.96
61337;BME280;47212;41.326;2.104;2023-06-22T02:23:51;101153.75;;;24.70;80.96
61337;BME280;47212;41.326;2.104;2023-06-22T02:28:56;101168.47;;;24.71;81.29
61337;BME280;47212;41.326;2.104;2023-06-22T02:34:00;101159.31;;;24.70;81.30
61337;BME280;47212;41.326;2.104;2023-06-22T02:39:03;101146.22;;;24.71;80.53
61337;BME280;47212;41.326;2.104;2023-06-22T02:44:05;101144.69;;;24.73;79.75
61337;BME280;47212;41.326;2.104;2023-06-22T02:49:08;101142.38;;;24.75;79.66
61337;BME280;47212;41.326;2.104;2023-06-22T02:54:12;101160.34;;;24.78;79.68
61337;BME280;47212;41.326;2.104;2023-06-22T02:59:15;101152.13;;;24.82;79.21
61337;BME280;47212;41.326;2.104;2023-06-22T03:04:21;101140.28;;;24.85;78.92
61337;BME280;47212;41.326;2.104;2023-06-22T03:09:23;101138.41;;;24.89;78.59
61337;BME280;47212;41.326;2.104;2023-06-22T03:14:28;101135.63;;;24.89;76.48
61337;BME280;47212;41.326;2.104;2023-06-22T03:19:30;101139.13;;;24.86;75.45
61337;BME280;47212;41.326;2.104;2023-06-22T03:24:33;101144.94;;;24.81;74.81
61337;BME280;47212;41.326;2.104;2023-06-22T03:29:40;101136.22;;;24.82;75.18
61337;BME280;47212;41.326;2.104;2023-06-22T03:34:50;101126.00;;;24.86;75.00
61337;BME280;47212;41.326;2.104;2023-06-22T03:39:57;101137.97;;;24.87;74.36
61337;BME280;47212;41.326;2.104;2023-06-22T03:45:05;101149.09;;;24.87;74.45
61337;BME280;47212;41.326;2.104;2023-06-22T03:50:14;101151.41;;;24.85;74.47
61337;BME280;47212;41.326;2.104;2023-06-22T03:55:31;101157.69;;;24.82;73.90
61337;BME280;47212;41.326;2.104;2023-06-22T04:06:13;101185.75;;;24.76;74.86
61337;BME280;47212;41.326;2.104;2023-06-22T04:11:16;101180.19;;;24.76;74.47
61337;BME280;47212;41.326;2.104;2023-06-22T04:16:23;101176.13;;;24.74;74.30
61337;BME280;47212;41.326;2.104;2023-06-22T04:36:10;101208.03;;;24.64;72.39
61337;BME280;47212;41.326;2.104;2023-06-22T04:41:15;101213.47;;;24.61;71.69
61337;BME280;47212;41.326;2.104;2023-06-22T04:46:32;101217.53;;;24.63;71.33
61337;BME280;47212;41.326;2.104;2023-06-22T04:51:38;101219.28;;;24.68;70.85
61337;BME280;47212;41.326;2.104;2023-06-22T04:56:43;101227.41;;;24.73;70.71
61337;BME280;47212;41.326;2.104;2023-06-22T05:01:48;101230.78;;;24.78;70.07
61337;BME280;47212;41.326;2.104;2023-06-22T05:06:54;101249.78;;;24.76;70.25
61337;BME280;47212;41.326;2.104;2023-06-22T05:12:02;101251.28;;;24.74;69.33
61337;BME280;47212;41.326;2.104;2023-06-22T05:17:05;101254.91;;;24.74;69.44
61337;BME280;47212;41.326;2.104;2023-06-22T05:22:17;101261.97;;;24.72;68.98
61337;BME280;47212;41.326;2.104;2023-06-22T05:27:19;101270.44;;;24.75;68.67
61337;BME280;47212;41.326;2.104;2023-06-22T05:32:22;101294.00;;;24.78;67.83
61337;BME280;47212;41.326;2.104;2023-06-22T05:37:29;101289.81;;;24.84;67.85
61337;BME280;47212;41.326;2.104;2023-06-22T05:42:31;101298.41;;;24.91;66.71
61337;BME280;47212;41.326;2.104;2023-06-22T05:47:33;101299.28;;;25.04;65.77
61337;BME280;47212;41.326;2.104;2023-06-22T05:52:36;101298.50;;;25.16;65.11
61337;BME280;47212;41.326;2.104;2023-06-22T05:57:38;101296.06;;;25.26;64.13
61337;BME280;47212;41.326;2.104;2023-06-22T06:02:44;101305.13;;;25.35;63.22
61337;BME280;47212;41.326;2.104;2023-06-22T06:07:48;101310.94;;;25.43;62.90
61337;BME280;47212;41.326;2.104;2023-06-22T06:12:54;101312.78;;;25.51;62.86
61337;BME280;47212;41.326;2.104;2023-06-22T06:17:56;101320.56;;;25.57;62.56
61337;BME280;47212;41.326;2.104;2023-06-22T06:22:59;101315.56;;;25.63;62.54
61337;BME280;47212;41.326;2.104;2023-06-22T06:28:01;101329.28;;;25.68;62.15
61337;BME280;47212;41.326;2.104;2023-06-22T06:33:03;101339.84;;;25.75;62.85
61337;BME280;47212;41.326;2.104;2023-06-22T06:38:33;101344.59;;;25.86;62.46
61337;BME280;47212;41.326;2.104;2023-06-22T06:43:35;101350.16;;;25.98;61.75
61337;BME280;47212;41.326;2.104;2023-06-22T06:48:37;101355.25;;;26.09;61.00
61337;BME280;47212;41.326;2.104;2023-06-22T06:53:44;101359.53;;;26.18;60.44
61337;BME280;47212;41.326;2.104;2023-06-22T06:58:46;101362.19;;;26.27;59.77
61337;BME280;47212;41.326;2.104;2023-06-22T07:03:49;101363.09;;;26.43;59.77
61337;BME280;47212;41.326;2.104;2023-06-22T07:08:52;101362.41;;;26.62;59.43
61337;BME280;47212;41.326;2.104;2023-06-22T07:13:54;101368.50;;;26.80;58.68
61337;BME280;47212;41.326;2.104;2023-06-22T07:18:56;101373.81;;;26.85;58.57
61337;BME280;47212;41.326;2.104;2023-06-22T07:23:58;101369.41;;;26.84;58.58
61337;BME280;47212;41.326;2.104;2023-06-22T07:29:01;101365.34;;;26.81;58.28
61337;BME280;47212;41.326;2.104;2023-06-22T07:34:03;101369.66;;;26.79;58.08
61337;BME280;47212;41.326;2.104;2023-06-22T07:39:06;101377.06;;;26.99;57.41
61337;BME280;47212;41.326;2.104;2023-06-22T07:44:08;101388.34;;;27.18;57.18
61337;BME280;47212;41.326;2.104;2023-06-22T07:49:11;101394.03;;;27.38;56.69
61337;BME280;47212;41.326;2.104;2023-06-22T07:54:13;101396.72;;;27.50;55.45
61337;BME280;47212;41.326;2.104;2023-06-22T07:59:23;101412.28;;;27.63;55.43
61337;BME280;47212;41.326;2.104;2023-06-22T08:04:25;101411.13;;;27.80;55.20
61337;BME280;47212;41.326;2.104;2023-06-22T08:09:30;101423.53;;;27.98;54.87
61337;BME280;47212;41.326;2.104;2023-06-22T08:14:33;101415.91;;;28.14;54.34
61337;BME280;47212;41.326;2.104;2023-06-22T08:19:40;101421.84;;;28.29;54.08
61337;BME280;47212;41.326;2.104;2023-06-22T08:24:43;101422.97;;;28.43;53.13
61337;BME280;47212;41.326;2.104;2023-06-22T08:29:45;101419.28;;;28.59;52.63
61337;BME280;47212;41.326;2.104;2023-06-22T08:34:47;101419.16;;;28.71;52.34
61337;BME280;47212;41.326;2.104;2023-06-22T08:39:49;101420.66;;;28.84;52.43
61337;BME280;47212;41.326;2.104;2023-06-22T08:44:52;101428.16;;;28.99;51.97
61337;BME280;47212;41.326;2.104;2023-06-22T08:49:54;101415.59;;;29.12;50.91
61337;BME280;47212;41.326;2.104;2023-06-22T08:54:57;101420.28;;;29.28;50.72
61337;BME280;47212;41.326;2.104;2023-06-22T09:00:00;101418.41;;;29.35;49.78
61337;BME280;47212;41.326;2.104;2023-06-22T09:05:07;101413.00;;;29.46;49.79
61337;BME280;47212;41.326;2.104;2023-06-22T09:10:10;101419.69;;;29.61;49.30
61337;BME280;47212;41.326;2.104;2023-06-22T09:15:14;101417.50;;;29.73;48.94
61337;BME280;47212;41.326;2.104;2023-06-22T09:20:24;101410.47;;;29.87;46.95
61337;BME280;47212;41.326;2.104;2023-06-22T09:25:52;101424.63;;;29.94;46.16
61337;BME280;47212;41.326;2.104;2023-06-22T09:30:54;101419.75;;;29.91;48.76
61337;BME280;47212;41.326;2.104;2023-06-22T09:36:01;101418.91;;;29.87;48.89
61337;BME280;47212;41.326;2.104;2023-06-22T09:41:03;101417.66;;;29.84;48.84
61337;BME280;47212;41.326;2.104;2023-06-22T09:46:05;101432.28;;;29.70;48.43
61337;BME280;47212;41.326;2.104;2023-06-22T09:51:09;101431.53;;;29.51;48.13
61337;BME280;47212;41.326;2.104;2023-06-22T09:56:12;101423.63;;;29.56;48.39
61337;BME280;47212;41.326;2.104;2023-06-22T10:01:17;101427.19;;;29.53;48.56
61337;BME280;47212;41.326;2.104;2023-06-22T10:06:20;101419.69;;;29.61;47.93
61337;BME280;47212;41.326;2.104;2023-06-22T10:11:22;101422.69;;;29.71;46.96
61337;BME280;47212;41.326;2.104;2023-06-22T10:16:32;101432.59;;;29.65;46.83
61337;BME280;47212;41.326;2.104;2023-06-22T10:21:35;101426.13;;;29.61;47.23
61337;BME280;47212;41.326;2.104;2023-06-22T10:26:37;101429.03;;;29.68;45.98
61337;BME280;47212;41.326;2.104;2023-06-22T10:31:39;101429.59;;;29.77;46.66
61337;BME280;47212;41.326;2.104;2023-06-22T10:36:42;101440.97;;;29.88;45.78
61337;BME280;47212;41.326;2.104;2023-06-22T10:41:46;101438.72;;;29.97;45.56
61337;BME280;47212;41.326;2.104;2023-06-22T10:46:49;101458.31;;;29.94;44.97
61337;BME280;47212;41.326;2.104;2023-06-22T10:51:51;101456.13;;;29.84;45.03
61337;BME280;47212;41.326;2.104;2023-06-22T10:56:54;101457.31;;;29.83;45.25
61337;BME280;47212;41.326;2.104;2023-06-22T11:01:59;101471.31;;;29.79;45.65
61337;BME280;47212;41.326;2.104;2023-06-22T11:07:01;101463.94;;;29.71;46.37
61337;BME280;47212;41.326;2.104;2023-06-22T11:12:04;101468.88;;;29.55;47.53
61337;BME280;47212;41.326;2.104;2023-06-22T11:17:07;101464.53;;;29.38;48.59
61337;BME280;47212;41.326;2.104;2023-06-22T11:22:09;101465.44;;;29.23;50.19
61337;BME280;47212;41.326;2.104;2023-06-22T11:27:11;101459.66;;;28.93;50.90
61337;BME280;47212;41.326;2.104;2023-06-22T11:32:16;101444.16;;;28.79;51.16
61337;BME280;47212;41.326;2.104;2023-06-22T11:37:21;101437.16;;;28.89;50.25
61337;BME280;47212;41.326;2.104;2023-06-22T11:42:23;101429.59;;;29.12;49.96
61337;BME280;47212;41.326;2.104;2023-06-22T11:47:26;101418.41;;;29.35;49.16
61337;BME280;47212;41.326;2.104;2023-06-22T11:52:28;101435.16;;;29.32;48.90
61337;BME280;47212;41.326;2.104;2023-06-22T11:57:33;101410.78;;;29.13;48.11
61337;BME280;47212;41.326;2.104;2023-06-22T12:02:36;101421.09;;;29.28;47.87
61337;BME280;47212;41.326;2.104;2023-06-22T12:07:39;101416.84;;;29.38;47.09
61337;BME280;47212;41.326;2.104;2023-06-22T12:12:41;101417.09;;;29.48;46.49
61337;BME280;47212;41.326;2.104;2023-06-22T12:17:46;101425.19;;;29.54;46.85
61337;BME280;47212;41.326;2.104;2023-06-22T12:22:50;101426.13;;;29.42;46.28
61337;BME280;47212;41.326;2.104;2023-06-22T12:27:57;101428.13;;;29.18;46.53
61337;BME280;47212;41.326;2.104;2023-06-22T12:32:59;101429.31;;;29.17;46.31
61337;BME280;47212;41.326;2.104;2023-06-22T12:38:02;101430.44;;;29.36;46.46
61337;BME280;47212;41.326;2.104;2023-06-22T12:43:06;101423.41;;;29.45;46.66
61337;BME280;47212;41.326;2.104;2023-06-22T12:48:11;101436.78;;;29.52;46.15
61337;BME280;47212;41.326;2.104;2023-06-22T12:53:14;101447.94;;;29.48;46.55
61337;BME280;47212;41.326;2.104;2023-06-22T12:58:16;101443.34;;;29.40;47.32
61337;BME280;47212;41.326;2.104;2023-06-22T13:03:19;101440.97;;;29.42;47.44
61337;BME280;47212;41.326;2.104;2023-06-22T13:08:21;101457.09;;;29.26;46.76
61337;BME280;47212;41.326;2.104;2023-06-22T13:13:36;101447.31;;;29.16;47.34
61337;BME280;47212;41.326;2.104;2023-06-22T13:18:39;101446.72;;;29.07;48.41
61337;BME280;47212;41.326;2.104;2023-06-22T13:23:41;101453.69;;;28.94;48.70
61337;BME280;47212;41.326;2.104;2023-06-22T13:28:43;101454.13;;;28.96;48.85
61337;BME280;47212;41.326;2.104;2023-06-22T13:33:46;101466.16;;;28.97;47.74
61337;BME280;47212;41.326;2.104;2023-06-22T13:38:49;101462.53;;;28.96;46.73
61337;BME280;47212;41.326;2.104;2023-06-22T13:43:52;101462.69;;;29.03;47.80
61337;BME280;47212;41.326;2.104;2023-06-22T13:48:54;101468.84;;;29.12;47.09
61337;BME280;47212;41.326;2.104;2023-06-22T13:53:58;101478.41;;;29.31;46.39
61337;BME280;47212;41.326;2.104;2023-06-22T13:59:00;101461.88;;;29.45;45.84
61337;BME280;47212;41.326;2.104;2023-06-22T14:04:11;101462.16;;;29.59;45.62
61337;BME280;47212;41.326;2.104;2023-06-22T14:09:13;101463.56;;;29.72;44.96
61337;BME280;47212;41.326;2.104;2023-06-22T14:14:18;101456.13;;;29.84;44.22
61337;BME280;47212;41.326;2.104;2023-06-22T14:19:20;101479.47;;;29.88;42.77
61337;BME280;47212;41.326;2.104;2023-06-22T14:24:23;101477.03;;;29.86;43.10
61337;BME280;47212;41.326;2.104;2023-06-22T14:29:28;101481.34;;;29.80;43.65
61337;BME280;47212;41.326;2.104;2023-06-22T14:34:30;101487.84;;;29.61;43.56
61337;BME280;47212;41.326;2.104;2023-06-22T14:39:33;101501.94;;;29.45;43.99
61337;BME280;47212;41.326;2.104;2023-06-22T14:44:35;101500.22;;;29.41;44.18
61337;BME280;47212;41.326;2.104;2023-06-22T14:49:37;101503.50;;;29.43;44.28
61337;BME280;47212;41.326;2.104;2023-06-22T14:54:39;101519.31;;;29.51;44.02
61337;BME280;47212;41.326;2.104;2023-06-22T14:59:42;101510.56;;;29.37;44.67
61337;BME280;47212;41.326;2.104;2023-06-22T15:04:44;101506.44;;;29.31;46.40
61337;BME280;47212;41.326;2.104;2023-06-22T15:09:47;101499.97;;;29.27;44.83
61337;BME280;47212;41.326;2.104;2023-06-22T15:14:49;101514.88;;;29.11;46.27
61337;BME280;47212;41.326;2.104;2023-06-22T15:19:51;101507.66;;;29.10;46.39
61337;BME280;47212;41.326;2.104;2023-06-22T15:24:54;101511.03;;;29.20;47.71
61337;BME280;47212;41.326;2.104;2023-06-22T15:29:56;101525.59;;;29.06;49.19
61337;BME280;47212;41.326;2.104;2023-06-22T15:34:59;101518.44;;;29.08;49.40
61337;BME280;47212;41.326;2.104;2023-06-22T15:40:01;101529.22;;;29.06;48.88
61337;BME280;47212;41.326;2.104;2023-06-22T15:45:04;101514.47;;;28.90;50.01
61337;BME280;47212;41.326;2.104;2023-06-22T15:50:07;101508.53;;;28.76;51.16
61337;BME280;47212;41.326;2.104;2023-06-22T15:55:09;101521.94;;;28.67;51.42
61337;BME280;47212;41.326;2.104;2023-06-22T16:00:16;101527.63;;;28.54;51.61
61337;BME280;47212;41.326;2.104;2023-06-22T16:05:19;101522.16;;;28.42;52.82
61337;BME280;47212;41.326;2.104;2023-06-22T16:10:24;101528.75;;;28.18;54.02
61337;BME280;47212;41.326;2.104;2023-06-22T16:15:26;101534.75;;;28.01;54.63
61337;BME280;47212;41.326;2.104;2023-06-22T16:20:29;101552.63;;;27.97;55.73
61337;BME280;47212;41.326;2.104;2023-06-22T16:25:37;101550.91;;;27.92;56.30
61337;BME280;47212;41.326;2.104;2023-06-22T16:30:39;101551.72;;;27.77;57.81
61337;BME280;47212;41.326;2.104;2023-06-22T16:35:43;101581.44;;;27.69;57.62
61337;BME280;47212;41.326;2.104;2023-06-22T16:40:45;101612.78;;;27.75;58.44
61337;BME280;47212;41.326;2.104;2023-06-22T16:45:48;101635.91;;;27.87;58.24
61337;BME280;47212;41.326;2.104;2023-06-22T16:50:50;101649.03;;;27.99;58.10
61337;BME280;47212;41.326;2.104;2023-06-22T16:55:53;101654.72;;;28.03;57.68
61337;BME280;47212;41.326;2.104;2023-06-22T17:00:55;101655.53;;;28.03;57.67
61337;BME280;47212;41.326;2.104;2023-06-22T17:05:58;101671.06;;;28.01;57.20
61337;BME280;47212;41.326;2.104;2023-06-22T17:11:03;101664.28;;;28.02;56.93
61337;BME280;47212;41.326;2.104;2023-06-22T17:16:17;101678.72;;;28.04;56.02
61337;BME280;47212;41.326;2.104;2023-06-22T17:21:22;101689.94;;;28.04;56.88
61337;BME280;47212;41.326;2.104;2023-06-22T17:26:24;101692.28;;;28.02;58.65
61337;BME280;47212;41.326;2.104;2023-06-22T17:31:39;101695.34;;;27.97;60.72
61337;BME280;47212;41.326;2.104;2023-06-22T17:36:51;101711.66;;;27.95;61.43
61337;BME280;47212;41.326;2.104;2023-06-22T17:41:58;101717.31;;;27.82;62.00
61337;BME280;47212;41.326;2.104;2023-06-22T17:47:01;101725.97;;;27.65;62.24
61337;BME280;47212;41.326;2.104;2023-06-22T17:52:05;101735.06;;;27.62;63.03
61337;BME280;47212;41.326;2.104;2023-06-22T17:57:17;101746.47;;;27.57;63.94
61337;BME280;47212;41.326;2.104;2023-06-22T18:02:23;101755.59;;;27.42;65.74
61337;BME280;47212;41.326;2.104;2023-06-22T18:07:29;101761.69;;;27.19;66.00
61337;BME280;47212;41.326;2.104;2023-06-22T18:12:39;101771.03;;;27.11;69.17
61337;BME280;47212;41.326;2.104;2023-06-22T18:17:45;101779.63;;;27.06;66.89
61337;BME280;47212;41.326;2.104;2023-06-22T18:22:48;101782.66;;;27.01;67.26
61337;BME280;47212;41.326;2.104;2023-06-22T18:27:51;101801.06;;;27.02;67.75
61337;BME280;47212;41.326;2.104;2023-06-22T18:32:53;101804.22;;;27.01;67.54
61337;BME280;47212;41.326;2.104;2023-06-22T18:37:56;101800.69;;;26.91;68.15
61337;BME280;47212;41.326;2.104;2023-06-22T18:43:00;101815.34;;;26.88;68.28
61337;BME280;47212;41.326;2.104;2023-06-22T18:48:05;101833.38;;;26.91;67.66
61337;BME280;47212;41.326;2.104;2023-06-22T18:53:25;101832.56;;;26.90;68.07
61337;BME280;47212;41.326;2.104;2023-06-22T18:58:28;101838.22;;;26.82;67.88
61337;BME280;47212;41.326;2.104;2023-06-22T19:03:31;101840.78;;;26.75;68.61
61337;BME280;47212;41.326;2.104;2023-06-22T19:09:12;101848.91;;;26.67;70.63
61337;BME280;47212;41.326;2.104;2023-06-22T19:14:19;101856.34;;;26.63;70.68
61337;BME280;47212;41.326;2.104;2023-06-22T19:19:25;101866.34;;;26.64;69.71
61337;BME280;47212;41.326;2.104;2023-06-22T19:24:53;101865.19;;;26.65;72.09
61337;BME280;47212;41.326;2.104;2023-06-22T19:29:56;101874.59;;;26.61;70.50
61337;BME280;47212;41.326;2.104;2023-06-22T19:34:59;101881.91;;;26.53;71.10
61337;BME280;47212;41.326;2.104;2023-06-22T19:40:01;101883.75;;;26.49;71.35
61337;BME280;47212;41.326;2.104;2023-06-22T19:45:08;101886.06;;;26.47;71.58
61337;BME280;47212;41.326;2.104;2023-06-22T19:50:14;101898.75;;;26.45;71.75
61337;BME280;47212;41.326;2.104;2023-06-22T19:55:21;101899.44;;;26.42;71.89
61337;BME280;47212;41.326;2.104;2023-06-22T20:00:24;101911.16;;;26.35;71.61
61337;BME280;47212;41.326;2.104;2023-06-22T20:05:26;101912.19;;;26.22;72.47
61337;BME280;47212;41.326;2.104;2023-06-22T20:10:28;101932.34;;;26.07;73.60
61337;BME280;47212;41.326;2.104;2023-06-22T20:15:39;101926.66;;;25.94;75.41
61337;BME280;47212;41.326;2.104;2023-06-22T20:20:46;101945.06;;;25.87;75.95
61337;BME280;47212;41.326;2.104;2023-06-22T20:25:49;101946.72;;;25.88;75.78
61337;BME280;47212;41.326;2.104;2023-06-22T20:31:05;101959.22;;;25.82;77.80
61337;BME280;47212;41.326;2.104;2023-06-22T20:36:08;101957.44;;;25.77;77.66
61337;BME280;47212;41.326;2.104;2023-06-22T20:41:11;101962.72;;;25.70;78.36
61337;BME280;47212;41.326;2.104;2023-06-22T20:46:14;101983.53;;;25.73;78.41
61337;BME280;47212;41.326;2.104;2023-06-22T20:51:19;101976.63;;;25.79;78.42
61337;BME280;47212;41.326;2.104;2023-06-22T20:56:21;101981.81;;;25.89;78.11
61337;BME280;47212;41.326;2.104;2023-06-22T21:01:25;101999.66;;;25.96;77.77
61337;BME280;47212;41.326;2.104;2023-06-22T21:06:39;101996.19;;;25.99;77.95
61337;BME280;47212;41.326;2.104;2023-06-22T21:11:41;102005.38;;;26.00;77.99
61337;BME280;47212;41.326;2.104;2023-06-22T21:16:43;102000.63;;;26.00;77.79
61337;BME280;47212;41.326;2.104;2023-06-22T21:21:46;101994.91;;;25.97;77.97
61337;BME280;47212;41.326;2.104;2023-06-22T21:26:50;102009.38;;;25.90;77.96
61337;BME280;47212;41.326;2.104;2023-06-22T21:31:53;102003.31;;;25.88;77.73
61337;BME280;47212;41.326;2.104;2023-06-22T21:36:55;102014.34;;;25.85;77.91
61337;BME280;47212;41.326;2.104;2023-06-22T21:41:57;102020.59;;;25.82;77.88
61337;BME280;47212;41.326;2.104;2023-06-22T21:46:59;102030.09;;;25.81;78.18
61337;BME280;47212;41.326;2.104;2023-06-22T21:52:02;102026.00;;;25.78;78.53
61337;BME280;47212;41.326;2.104;2023-06-22T21:57:04;102023.22;;;25.78;78.19
61337;BME280;47212;41.326;2.104;2023-06-22T22:02:07;102025.19;;;25.78;78.00
61337;BME280;47212;41.326;2.104;2023-06-22T22:07:09;102033.22;;;25.79;77.42
61337;BME280;47212;41.326;2.104;2023-06-22T22:12:12;102040.78;;;25.79;77.35
61337;BME280;47212;41.326;2.104;2023-06-22T22:17:18;102035.53;;;25.77;77.20
61337;BME280;47212;41.326;2.104;2023-06-22T22:22:20;102034.72;;;25.77;77.06
61337;BME280;47212;41.326;2.104;2023-06-22T22:27:22;102042.59;;;25.75;77.11
61337;BME280;47212;41.326;2.104;2023-06-22T22:32:25;102045.03;;;25.76;76.68
61337;BME280;47212;41.326;2.104;2023-06-22T22:37:27;102047.84;;;25.76;76.95
61337;BME280;47212;41.326;2.104;2023-06-22T22:42:29;102045.03;;;25.76;76.44
61337;BME280;47212;41.326;2.104;2023-06-22T22:47:32;102038.66;;;25.76;76.63
61337;BME280;47212;41.326;2.104;2023-06-22T22:52:35;102047.84;;;25.76;76.29
61337;BME280;47212;41.326;2.104;2023-06-22T22:57:37;102046.69;;;25.77;76.08
61337;BME280;47212;41.326;2.104;2023-06-22T23:02:39;102046.50;;;25.82;75.90
61337;BME280;47212;41.326;2.104;2023-06-22T23:07:45;102050.44;;;25.81;76.00
61337;BME280;47212;41.326;2.104;2023-06-22T23:12:47;102047.66;;;25.81;75.87
61337;BME280;47212;41.326;2.104;2023-06-22T23:17:50;102053.09;;;25.78;75.98
61337;BME280;47212;41.326;2.104;2023-06-22T23:22:54;102055.06;;;25.77;75.92
61337;BME280;47212;41.326;2.104;2023-06-22T23:28:03;102047.34;;;25.74;75.80
61337;BME280;47212;41.326;2.104;2023-06-22T23:33:07;102055.56;;;25.70;75.75
61337;BME280;47212;41.326;2.104;2023-06-22T23:38:10;102058.22;;;25.67;75.69
61337;BME280;47212;41.326;2.104;2023-06-22T23:43:13;102055.91;;;25.69;75.96
61337;BME280;47212;41.326;2.104;2023-06-22T23:48:15;102053.59;;;25.71;75.65
61337;BME280;47212;41.326;2.104;2023-06-22T23:53:17;102051.97;;;25.70;75.40
61337;BME280;47212;41.326;2.104;2023-06-22T23:58:21;102061.47;;;25.69;75.65
